Time;durP1;ratioP1;P1;durP2;ratioP2;P2;SDS_P1;SDS_P2;PMS_P1;PMS_P2;Temp;Humidity;BMP_temperature;BMP_pressure;BME280_temperature;BME280_humidity;BME280_pressure;Samples;Min_cycle;Max_cycle;Signal;HPM_P1;HPM_P2
2021/12/29 00:04:05;;;;;;;8.27;2.40;;;;;;;2.85;100.00;94834.13;10481908;28;20207;-75
2021/12/29 00:09:05;;;;;;;9.67;2.53;;;;;;;2.90;100.00;94828.47;10499218;28;20191;-75
2021/12/29 00:14:09;;;;;;;7.80;1.27;;;;;;;3.03;100.00;94835.78;10464666;28;20191;-76
2021/12/29 00:19:09;;;;;;;3.47;1.80;;;;;;;3.09;100.00;94834.34;10481297;28;20632;-75
2021/12/29 00:24:10;;;;;;;4.10;1.70;;;;;;;3.17;100.00;94842.13;10498423;28;20248;-75
2021/12/29 00:29:10;;;;;;;5.13;1.90;;;;;;;3.35;100.00;94834.25;10498847;28;20188;-76
2021/12/29 00:34:12;;;;;;;3.37;1.57;;;;;;;3.26;100.00;94845.56;10480240;28;20197;-76
2021/12/29 00:39:31;;;;;;;6.13;2.13;;;;;;;3.25;100.00;94855.13;10498478;28;20234;-75
2021/12/29 00:45:10;;;;;;;2.97;2.00;;;;;;;3.09;100.00;94855.84;10497078;28;20611;-76
2021/12/29 00:50:13;;;;;;;8.87;2.57;;;;;;;2.91;100.00;94852.53;10480639;28;20242;-76
2021/12/29 00:55:15;;;;;;;6.40;2.00;;;;;;;2.84;100.00;94858.34;10497247;28;20217;-75
2021/12/29 01:00:18;;;;;;;5.57;2.33;;;;;;;2.54;100.00;94869.97;10479729;28;20736;-76
2021/12/29 01:05:19;;;;;;;4.67;2.60;;;;;;;2.35;100.00;94873.59;10497228;28;20216;-77
2021/12/29 01:10:19;;;;;;;5.83;2.47;;;;;;;2.37;100.00;94876.81;10478987;28;20202;-74
2021/12/29 01:15:25;;;;;;;5.43;2.70;;;;;;;2.29;100.00;94879.34;10478853;28;20215;-76
2021/12/29 01:20:27;;;;;;;5.10;2.73;;;;;;;2.19;100.00;94888.97;10479485;28;20210;-76
2021/12/29 01:25:29;;;;;;;3.87;2.50;;;;;;;2.13;100.00;94887.81;10478327;28;20186;-76
2021/12/29 01:30:29;;;;;;;4.53;2.97;;;;;;;2.18;100.00;94893.31;10496112;28;20223;-76
2021/12/29 01:35:29;;;;;;;3.13;2.23;;;;;;;2.22;100.00;94899.00;10488442;28;20768;-76
2021/12/29 01:40:31;;;;;;;5.00;2.13;;;;;;;2.10;100.00;94906.97;10537262;28;20207;-76
2021/12/29 01:45:32;;;;;;;2.80;2.10;;;;;;;1.96;100.00;94910.91;10537839;28;20225;-76
2021/12/29 01:50:35;;;;;;;4.43;2.33;;;;;;;1.98;100.00;94909.97;10537080;28;20228;-76
2021/12/29 01:55:37;;;;;;;2.93;2.30;;;;;;;2.26;100.00;94911.47;10518402;28;20245;-76
2021/12/29 02:00:38;;;;;;;3.70;2.23;;;;;;;2.29;100.00;94911.16;10518072;28;20685;-76
2021/12/29 02:05:39;;;;;;;2.57;1.50;;;;;;;2.42;100.00;94921.13;10536250;28;20186;-76
2021/12/29 02:10:45;;;;;;;1.60;1.50;;;;;;;2.42;100.00;94934.03;10536809;28;20191;-76
2021/12/29 02:15:45;;;;;;;2.67;1.90;;;;;;;2.40;100.00;94933.34;10519419;28;20641;-76
2021/12/29 02:20:48;;;;;;;2.23;1.50;;;;;;;2.36;100.00;94936.41;10518162;28;20304;-75
2021/12/29 02:25:54;;;;;;;1.43;1.30;;;;;;;2.59;100.00;94949.66;10517913;28;20187;-76
2021/12/29 02:30:55;;;;;;;2.20;1.20;;;;;;;2.76;100.00;94953.97;10536106;28;21007;-76
2021/12/29 02:35:58;;;;;;;1.50;1.40;;;;;;;2.75;100.00;94962.69;10534892;28;20317;-78
2021/12/29 02:41:02;;;;;;;2.03;1.30;;;;;;;2.69;100.00;94968.47;10518250;28;20195;-75
2021/12/29 02:46:06;;;;;;;1.23;1.10;;;;;;;2.75;100.00;94957.53;10535574;28;20187;-76
2021/12/29 02:51:08;;;;;;;1.87;1.23;;;;;;;2.86;100.00;94966.81;10518146;28;20196;-76
2021/12/29 02:56:08;;;;;;;1.10;1.00;;;;;;;2.99;100.00;94969.00;10535329;28;20222;-75
2021/12/29 03:01:12;;;;;;;1.30;1.20;;;;;;;2.98;100.00;94973.34;10517442;28;20190;-76
2021/12/29 03:06:12;;;;;;;1.20;1.07;;;;;;;2.81;100.00;94977.59;10535312;28;20194;-75
2021/12/29 03:11:13;;;;;;;1.30;1.20;;;;;;;2.83;100.00;94986.03;10543689;28;20248;-75
2021/12/29 03:16:13;;;;;;;1.97;1.20;;;;;;;2.77;100.00;94994.41;10527196;28;20234;-76
2021/12/29 03:21:14;;;;;;;1.10;1.00;;;;;;;2.87;100.00;95003.84;10567051;28;20312;-76
2021/12/29 03:26:16;;;;;;;3.03;1.33;;;;;;;2.82;100.00;95009.47;10546032;28;20266;-76
2021/12/29 03:31:17;;;;;;;1.50;1.20;;;;;;;2.87;100.00;95011.59;10543707;28;20340;-76
2021/12/29 03:36:18;;;;;;;1.13;0.93;;;;;;;2.93;100.00;95016.97;10541946;28;20246;-76
2021/12/29 03:41:20;;;;;;;1.03;1.00;;;;;;;2.89;100.00;95025.19;10541899;28;20222;-76
2021/12/29 03:46:20;;;;;;;1.30;1.10;;;;;;;3.18;100.00;95030.84;10524185;28;20195;-76
2021/12/29 03:51:21;;;;;;;1.00;0.90;;;;;;;3.40;100.00;95033.91;10542753;28;20213;-76
2021/12/29 03:56:21;;;;;;;5.23;1.20;;;;;;;3.39;100.00;95046.03;10541674;28;20222;-76
2021/12/29 04:01:25;;;;;;;1.67;1.20;;;;;;;3.50;100.00;95049.31;10542130;28;20187;-76
2021/12/29 04:06:25;;;;;;;2.17;1.03;;;;;;;3.42;100.00;95049.28;10538388;28;20190;-77
2021/12/29 04:11:26;;;;;;;1.97;1.37;;;;;;;3.55;100.00;95060.84;10538382;28;20190;-76
2021/12/29 04:16:27;;;;;;;3.93;1.93;;;;;;;3.59;100.00;95068.31;10537490;28;20222;-76
2021/12/29 04:21:27;;;;;;;2.90;1.60;;;;;;;3.72;100.00;95097.16;10518524;28;20251;-76
2021/12/29 04:26:27;;;;;;;4.23;2.33;;;;;;;3.57;100.00;95095.16;10519723;28;20218;-76
2021/12/29 04:31:28;;;;;;;5.03;2.23;;;;;;;3.53;100.00;95111.97;10537529;28;20553;-76
2021/12/29 04:36:28;;;;;;;6.73;3.23;;;;;;;3.59;100.00;95122.69;10517300;28;20337;-76
2021/12/29 04:41:28;;;;;;;2.73;2.30;;;;;;;3.56;100.00;95141.91;10494604;28;20253;-77
2021/12/29 04:46:37;;;;;;;3.53;2.20;;;;;;;3.63;100.00;95136.94;10494655;28;20195;-76
2021/12/29 04:51:44;;;;;;;4.17;2.30;;;;;;;3.56;100.00;95147.09;10494324;28;20195;-76
2021/12/29 04:56:44;;;;;;;6.13;2.97;;;;;;;3.57;100.00;95148.72;10494411;28;20762;-76
2021/12/29 05:01:45;;;;;;;5.13;2.73;;;;;;;3.61;100.00;95151.81;10477018;28;20188;-76
2021/12/29 05:12:05;;;;;;;5.27;3.57;;;;;;;3.56;100.00;95171.19;10510695;28;20190;-76
2021/12/29 05:17:07;;;;;;;3.87;2.90;;;;;;;3.51;100.00;95178.63;10496668;28;20214;-76
2021/12/29 05:22:07;;;;;;;5.50;3.10;;;;;;;3.47;100.00;95190.22;10496532;28;20207;-76
2021/12/29 05:27:08;;;;;;;3.30;2.53;;;;;;;3.49;100.00;95193.50;10496814;28;20196;-76
2021/12/29 05:32:08;;;;;;;9.23;3.87;;;;;;;3.49;100.00;95203.03;10495542;28;20342;-76
2021/12/29 05:37:08;;;;;;;6.20;3.50;;;;;;;3.49;100.00;95211.63;10520576;28;20320;-76
2021/12/29 05:42:09;;;;;;;6.80;3.33;;;;;;;3.54;100.00;95217.16;10537704;28;20194;-76
2021/12/29 05:47:09;;;;;;;3.90;3.33;;;;;;;3.42;100.00;95220.94;10537560;28;20266;-76
2021/12/29 05:52:10;;;;;;;6.60;3.60;;;;;;;3.52;100.00;95226.84;10537580;28;20198;-76
2021/12/29 05:57:10;;;;;;;4.77;3.20;;;;;;;3.48;100.00;95233.28;10536905;28;20210;-76
2021/12/29 06:02:11;;;;;;;8.83;3.53;;;;;;;3.41;100.00;95231.44;10537468;28;20281;-76
2021/12/29 06:07:12;;;;;;;5.23;3.00;;;;;;;3.41;100.00;95232.25;10536542;28;20205;-76
2021/12/29 06:12:13;;;;;;;4.97;2.60;;;;;;;3.38;100.00;95229.97;10536969;28;20190;-75
2021/12/29 06:17:14;;;;;;;5.60;3.43;;;;;;;3.33;100.00;95237.38;10536378;28;20211;-76
2021/12/29 06:22:14;;;;;;;7.70;3.30;;;;;;;3.30;100.00;95242.84;10536614;28;20190;-75
2021/12/29 06:27:15;;;;;;;4.77;3.53;;;;;;;3.27;100.00;95249.13;10501502;28;20190;-76
2021/12/29 06:32:15;;;;;;;7.97;3.67;;;;;;;3.28;100.00;95266.28;10515963;28;20186;-76
2021/12/29 06:37:16;;;;;;;7.10;3.90;;;;;;;3.21;100.00;95276.38;10535692;28;20234;-76
2021/12/29 06:42:17;;;;;;;4.40;3.80;;;;;;;3.28;100.00;95280.97;10535665;28;20225;-75
2021/12/29 06:47:17;;;;;;;6.53;3.90;;;;;;;3.32;100.00;95296.09;10536184;28;20210;-76
2021/12/29 06:52:17;;;;;;;6.57;3.90;;;;;;;3.35;100.00;95300.13;10518609;28;20571;-76
2021/12/29 06:57:18;;;;;;;6.73;3.73;;;;;;;3.38;100.00;95308.44;10517584;28;20226;-76
2021/12/29 07:02:18;;;;;;;3.70;3.33;;;;;;;3.40;100.00;95329.00;10535883;28;20197;-76
2021/12/29 07:07:19;;;;;;;5.60;3.40;;;;;;;3.41;100.00;95332.41;10535902;28;20195;-76
2021/12/29 07:12:20;;;;;;;7.03;3.23;;;;;;;3.43;100.00;95339.06;10517044;28;20208;-76
2021/12/29 07:17:20;;;;;;;7.50;4.17;;;;;;;3.30;100.00;95346.34;10535653;28;20268;-76
2021/12/29 07:22:22;;;;;;;7.03;5.00;;;;;;;3.32;100.00;95350.44;10535181;28;20183;-76
2021/12/29 07:27:22;;;;;;;8.13;5.20;;;;;;;3.50;100.00;95355.63;10535250;28;20244;-76
2021/12/29 07:32:22;;;;;;;8.33;5.37;;;;;;;3.47;100.00;95366.28;10534888;28;20240;-76
2021/12/29 07:37:23;;;;;;;9.03;5.87;;;;;;;3.46;100.00;95364.66;10534490;28;20777;-76
2021/12/29 07:42:23;;;;;;;6.60;5.27;;;;;;;3.50;100.00;95371.16;10535073;28;20187;-76
2021/12/29 07:47:26;;;;;;;6.13;3.43;;;;;;;3.39;100.00;95368.78;10516733;28;20186;-76
2021/12/29 07:52:26;;;;;;;7.97;4.00;;;;;;;3.39;100.00;95377.34;10534897;28;20195;-76
2021/12/29 07:57:26;;;;;;;8.00;3.50;;;;;;;3.41;100.00;95379.78;10532853;28;20215;-75
2021/12/29 08:02:27;;;;;;;5.70;4.27;;;;;;;3.38;100.00;95380.09;10498667;28;20195;-76
2021/12/29 08:07:27;;;;;;;7.63;3.53;;;;;;;3.56;100.00;95388.69;10497459;28;20183;-76
2021/12/29 08:12:28;;;;;;;5.37;4.30;;;;;;;3.62;100.00;95391.69;10497813;28;20861;-76
2021/12/29 08:17:32;;;;;;;8.07;4.73;;;;;;;3.52;100.00;95395.16;10497731;28;20566;-76
2021/12/29 08:22:32;;;;;;;8.03;4.20;;;;;;;3.45;100.00;95409.63;10515117;28;20653;-76
2021/12/29 08:27:33;;;;;;;8.37;4.93;;;;;;;3.61;100.00;95403.00;10520394;28;20186;-76
2021/12/29 08:32:34;;;;;;;7.17;5.03;;;;;;;3.52;100.00;95415.03;10539149;28;20194;-76
2021/12/29 08:37:34;;;;;;;13.00;10.23;;;;;;;3.48;100.00;95421.47;10509968;28;20305;-76
2021/12/29 08:42:35;;;;;;;8.83;6.33;;;;;;;3.63;100.00;95427.78;10496531;28;20191;-76
2021/12/29 08:47:36;;;;;;;10.67;7.20;;;;;;;3.74;100.00;95435.34;10497239;28;20183;-76
2021/12/29 08:52:37;;;;;;;8.23;5.50;;;;;;;3.74;100.00;95437.94;10495306;28;20191;-76
2021/12/29 08:57:37;;;;;;;6.30;4.43;;;;;;;3.83;100.00;95443.19;10496245;28;20222;-76
2021/12/29 09:02:38;;;;;;;7.40;4.70;;;;;;;3.92;100.00;95444.91;10496123;28;20385;-75
2021/12/29 09:07:39;;;;;;;13.07;6.60;;;;;;;4.09;100.00;95462.25;10477396;28;20550;-76
2021/12/29 09:12:39;;;;;;;49.40;21.57;;;;;;;4.13;100.00;95478.31;10494998;28;20215;-76
2021/12/29 09:17:40;;;;;;;360.43;137.57;;;;;;;4.13;100.00;95480.91;10495332;28;20211;-76
2021/12/29 09:22:41;;;;;;;93.17;38.57;;;;;;;4.16;100.00;95485.00;10492875;28;20245;-76
2021/12/29 09:27:42;;;;;;;158.10;66.53;;;;;;;4.02;100.00;95499.28;10467483;28;20192;-76
2021/12/29 09:32:42;;;;;;;117.37;56.73;;;;;;;4.08;100.00;95507.25;10453536;28;20523;-75
2021/12/29 09:37:43;;;;;;;22.00;12.13;;;;;;;4.15;100.00;95509.28;10507645;28;20874;-76
2021/12/29 09:42:45;;;;;;;11.80;7.57;;;;;;;4.29;100.00;95508.78;10516066;28;20558;-76
2021/12/29 09:47:45;;;;;;;10.33;5.83;;;;;;;4.22;100.00;95508.53;10517272;28;20251;-76
2021/12/29 09:52:46;;;;;;;7.33;4.47;;;;;;;4.40;100.00;95507.75;10534611;28;20232;-76
2021/12/29 09:57:48;;;;;;;5.57;4.10;;;;;;;4.51;100.00;95510.09;10534622;28;20268;-75
2021/12/29 10:02:51;;;;;;;5.73;3.43;;;;;;;4.61;100.00;95504.88;10533239;28;20199;-75
2021/12/29 10:08:08;;;;;;;5.97;4.17;;;;;;;4.63;100.00;95508.91;10516183;28;20193;-75
2021/12/29 10:13:09;;;;;;;4.63;3.33;;;;;;;4.57;100.00;95509.50;10531155;28;20890;-76
2021/12/29 10:18:37;;;;;;;4.83;2.93;;;;;;;4.43;100.00;95512.63;10533031;28;20218;-81
2021/12/29 10:23:42;;;;;;;5.37;2.40;;;;;;;4.37;100.00;95518.41;10496972;28;20280;-77
2021/12/29 10:28:47;;;;;;;4.23;2.60;;;;;;;4.53;100.00;95525.53;10501246;28;20191;-76
2021/12/29 10:33:52;;;;;;;2.60;2.40;;;;;;;4.51;100.00;95527.47;10479839;28;20201;-77
2021/12/29 10:39:08;;;;;;;18.80;9.17;;;;;;;4.66;100.00;95528.56;10491940;28;20289;-77
2021/12/29 10:44:08;;;;;;;6.10;4.07;;;;;;;4.79;100.00;95530.75;10515402;28;20236;-77
2021/12/29 10:49:09;;;;;;;2.87;2.33;;;;;;;4.92;100.00;95526.00;10533113;28;20308;-77
2021/12/29 10:54:16;;;;;;;1.20;1.20;;;;;;;4.91;100.00;95539.13;10513301;28;20199;-78
2021/12/29 10:59:23;;;;;;;2.73;2.40;;;;;;;5.00;100.00;95533.03;10505674;28;20219;-76
2021/12/29 11:04:24;;;;;;;3.47;2.57;;;;;;;5.02;100.00;95535.50;10507718;28;20557;-76
2021/12/29 11:09:30;;;;;;;6.10;3.53;;;;;;;5.27;100.00;95526.91;10532256;28;20193;-77
2021/12/29 11:14:32;;;;;;;2.87;2.57;;;;;;;5.17;100.00;95531.38;10533220;28;20627;-77
2021/12/29 11:19:33;;;;;;;5.03;3.90;;;;;;;5.29;100.00;95537.13;10531895;28;20227;-78
2021/12/29 11:24:33;;;;;;;4.27;3.83;;;;;;;5.41;100.00;95545.50;10531664;28;20630;-77
2021/12/29 11:29:34;;;;;;;1.97;1.80;;;;;;;5.70;100.00;95542.56;10536846;28;20183;-78
2021/12/29 11:34:34;;;;;;;2.10;1.80;;;;;;;5.76;100.00;95551.50;10524543;28;20227;-78
2021/12/29 11:39:45;;;;;;;1.70;1.60;;;;;;;5.60;100.00;95554.84;10498321;28;20592;-78
2021/12/29 11:44:46;;;;;;;1.60;1.50;;;;;;;5.58;100.00;95562.78;10498747;28;20196;-78
2021/12/29 11:49:46;;;;;;;2.00;1.80;;;;;;;5.56;100.00;95564.75;10497943;28;20666;-78
2021/12/29 11:55:04;;;;;;;4.10;3.17;;;;;;;5.36;100.00;95562.34;10497978;28;20183;-79
2021/12/29 12:00:23;;;;;;;3.20;2.67;;;;;;;5.50;100.00;95571.34;10498318;28;20211;-78
2021/12/29 12:05:35;;;;;;;2.47;2.27;;;;;;;5.72;100.00;95583.00;10479108;28;20203;-78
2021/12/29 12:10:48;;;;;;;6.47;4.60;;;;;;;5.68;100.00;95601.66;10489473;28;20242;-78
2021/12/29 12:16:28;;;;;;;2.07;1.70;;;;;;;5.67;100.00;95605.22;10481123;28;20223;-76
2021/12/29 12:21:48;;;;;;;1.37;1.27;;;;;;;5.75;100.00;95607.06;10496359;28;20195;-77
2021/12/29 12:27:07;;;;;;;0.93;0.93;;;;;;;5.94;100.00;95606.84;10497940;28;20195;-75
2021/12/29 12:32:33;;;;;;;1.40;1.30;;;;;;;5.77;100.00;95612.91;10479231;28;20681;-75
2021/12/29 12:37:36;;;;;;;1.90;1.80;;;;;;;5.65;100.00;95617.53;10524376;28;20234;-77
2021/12/29 12:42:39;;;;;;;2.00;1.90;;;;;;;5.67;100.00;95616.44;10537656;28;20224;-78
2021/12/29 12:47:39;;;;;;;2.23;2.07;;;;;;;5.68;100.00;95614.63;10536663;28;20241;-77
2021/12/29 12:52:43;;;;;;;3.00;2.70;;;;;;;5.66;100.00;95619.19;10518951;28;20205;-77
2021/12/29 12:57:45;;;;;;;4.67;3.80;;;;;;;5.62;100.00;95617.84;10519275;28;20249;-77
2021/12/29 13:02:56;;;;;;;3.20;2.90;;;;;;;5.70;100.00;95629.13;10519093;28;20194;-77
2021/12/29 13:08:13;;;;;;;2.07;1.97;;;;;;;5.54;100.00;95631.59;10537014;28;20187;-78
2021/12/29 13:13:17;;;;;;;2.30;2.10;;;;;;;5.50;100.00;95640.69;10518184;28;20189;-77
2021/12/29 13:18:19;;;;;;;2.23;1.70;;;;;;;5.61;100.00;95637.81;10519191;28;20301;-78
2021/12/29 13:23:19;;;;;;;2.30;2.10;;;;;;;5.54;100.00;95640.22;10492663;28;20190;-79
2021/12/29 13:28:21;;;;;;;2.70;2.50;;;;;;;5.53;100.00;95653.38;10497721;28;20213;-78
2021/12/29 13:33:29;;;;;;;2.80;2.30;;;;;;;5.57;100.00;95664.25;10517283;28;20199;-78
2021/12/29 13:38:32;;;;;;;2.60;2.40;;;;;;;5.63;100.00;95666.25;10523976;28;20651;-78
2021/12/29 13:43:45;;;;;;;3.90;2.67;;;;;;;5.57;100.00;95674.66;10526830;28;20272;-78
2021/12/29 13:49:08;;;;;;;3.80;3.30;;;;;;;5.66;100.00;95697.13;10531622;28;20551;-77
2021/12/29 13:54:14;;;;;;;2.60;2.20;;;;;;;5.64;100.00;95696.47;10531463;28;20285;-79
2021/12/29 13:59:20;;;;;;;2.30;2.10;;;;;;;5.82;100.00;95710.25;10513427;28;20242;-78
2021/12/29 14:04:22;;;;;;;3.40;2.73;;;;;;;5.78;100.00;95721.09;10527602;28;20717;-78
2021/12/29 14:09:23;;;;;;;3.07;2.43;;;;;;;5.77;100.00;95727.25;10521680;28;20198;-78
2021/12/29 14:14:24;;;;;;;2.00;1.90;;;;;;;5.70;100.00;95740.84;10515844;28;20229;-78
2021/12/29 14:19:27;;;;;;;2.40;2.20;;;;;;;5.82;100.00;95738.84;10516887;28;20660;-77
2021/12/29 14:24:28;;;;;;;2.50;2.30;;;;;;;5.64;100.00;95743.25;10533892;28;20190;-78
2021/12/29 14:29:35;;;;;;;3.40;2.33;;;;;;;5.86;100.00;95745.34;10516453;28;20210;-77
2021/12/29 14:34:43;;;;;;;2.80;2.37;;;;;;;5.72;100.00;95751.91;10534593;28;20314;-77
2021/12/29 14:39:43;;;;;;;4.77;3.93;;;;;;;5.70;100.00;95758.22;10533413;28;20253;-75
2021/12/29 14:44:46;;;;;;;2.97;2.67;;;;;;;5.64;100.00;95762.22;10534080;28;20237;-75
2021/12/29 14:49:57;;;;;;;2.70;2.33;;;;;;;5.70;100.00;95766.84;10533800;28;20194;-76
2021/12/29 14:54:58;;;;;;;1.97;1.80;;;;;;;5.69;100.00;95785.97;10528088;28;20191;-74
2021/12/29 15:00:05;;;;;;;2.50;2.07;;;;;;;5.61;100.00;95782.50;10532798;28;20309;-75
2021/12/29 15:05:11;;;;;;;3.23;2.63;;;;;;;5.61;100.00;95791.13;10538870;28;20202;-75
2021/12/29 15:10:20;;;;;;;34.77;18.97;;;;;;;5.71;100.00;95794.47;10540718;28;20539;-76
2021/12/29 15:15:26;;;;;;;10.13;6.10;;;;;;;5.63;100.00;95804.75;10538115;28;20509;-76
2021/12/29 15:20:28;;;;;;;5.40;4.67;;;;;;;5.50;100.00;95812.94;10523550;28;20217;-76
2021/12/29 15:25:32;;;;;;;5.40;4.43;;;;;;;5.33;100.00;95817.13;10537163;28;20226;-78
2021/12/29 15:30:35;;;;;;;1.50;1.40;;;;;;;5.41;100.00;95819.00;10494333;28;20195;-76
2021/12/29 15:35:36;;;;;;;4.87;1.80;;;;;;;5.27;100.00;95827.31;10526631;28;20677;-77
2021/12/29 15:40:38;;;;;;;1.67;1.20;;;;;;;5.25;100.00;95832.63;10522857;28;20253;-78
2021/12/29 15:45:39;;;;;;;1.60;1.40;;;;;;;5.15;100.00;95834.47;10522686;28;20195;-78
2021/12/29 15:50:44;;;;;;;4.53;1.40;;;;;;;5.12;100.00;95834.75;10507777;28;20202;-79
2021/12/29 15:55:44;;;;;;;1.83;1.73;;;;;;;5.09;100.00;95840.22;10532617;28;20194;-79
2021/12/29 16:00:47;;;;;;;2.27;1.20;;;;;;;5.22;100.00;95838.09;10521087;28;20189;-79
2021/12/29 16:05:47;;;;;;;2.07;1.63;;;;;;;5.26;100.00;95851.63;10522198;28;20553;-79
2021/12/29 16:10:48;;;;;;;2.27;2.07;;;;;;;5.16;100.00;95851.66;10522232;28;20197;-79
2021/12/29 16:15:54;;;;;;;1.70;1.60;;;;;;;5.12;100.00;95850.34;10536946;28;20194;-78
2021/12/29 16:21:49;;;;;;;22.60;9.57;;;;;;;5.11;100.00;95851.28;10523077;28;20568;-78
2021/12/29 16:27:06;;;;;;;37.50;18.90;;;;;;;5.14;100.00;95861.38;10534158;28;20195;-79
2021/12/29 16:32:07;;;;;;;10.20;6.67;;;;;;;5.15;100.00;95860.44;10537078;28;20200;-79
2021/12/29 16:37:08;;;;;;;6.37;5.00;;;;;;;5.07;100.00;95855.94;10510216;28;20285;-78
2021/12/29 16:42:08;;;;;;;5.77;4.17;;;;;;;5.19;100.00;95864.34;10511983;28;20882;-77
2021/12/29 16:47:09;;;;;;;6.20;4.47;;;;;;;5.18;100.00;95868.75;10478430;28;20599;-78
2021/12/29 16:52:09;;;;;;;5.83;3.60;;;;;;;5.15;100.00;95870.81;10495890;28;20202;-76
2021/12/29 16:57:10;;;;;;;4.10;3.37;;;;;;;5.14;100.00;95866.56;10524925;28;20230;-75
2021/12/29 17:02:12;;;;;;;2.97;2.70;;;;;;;5.20;100.00;95878.97;10536796;28;20258;-76
2021/12/29 17:07:12;;;;;;;3.00;2.80;;;;;;;5.23;100.00;95863.09;10538592;28;20182;-76
2021/12/29 17:12:12;;;;;;;2.50;2.30;;;;;;;5.25;100.00;95860.38;10520364;28;20190;-75
2021/12/29 17:17:13;;;;;;;2.63;2.43;;;;;;;5.20;100.00;95863.41;10537621;28;20571;-77
2021/12/29 17:22:13;;;;;;;2.83;2.53;;;;;;;5.16;100.00;95852.50;10537457;28;20226;-77
2021/12/29 17:27:14;;;;;;;3.53;2.80;;;;;;;5.00;100.00;95847.09;10538250;28;20183;-77
2021/12/29 17:32:14;;;;;;;15.67;7.63;;;;;;;4.88;100.00;95837.84;10537830;28;20287;-77
2021/12/29 17:37:15;;;;;;;6.23;5.23;;;;;;;4.87;100.00;95836.22;10537650;28;20709;-77
2021/12/29 17:42:15;;;;;;;9.73;6.80;;;;;;;4.85;100.00;95846.75;10537773;28;20189;-77
2021/12/29 17:47:16;;;;;;;14.00;7.97;;;;;;;4.83;100.00;95838.28;10518630;28;20194;-78
2021/12/29 17:52:16;;;;;;;5.70;4.57;;;;;;;4.98;100.00;95849.84;10519564;28;20257;-78
2021/12/29 17:57:16;;;;;;;6.70;5.20;;;;;;;5.05;100.00;95850.06;10536571;28;20226;-78
2021/12/29 18:02:18;;;;;;;6.27;4.87;;;;;;;5.00;100.00;95858.28;10537636;28;20700;-78
2021/12/29 18:07:18;;;;;;;7.23;4.80;;;;;;;4.98;100.00;95862.00;10518238;28;20190;-79
2021/12/29 18:12:20;;;;;;;6.60;5.07;;;;;;;4.85;100.00;95857.13;10536778;28;20598;-79
2021/12/29 18:17:21;;;;;;;5.60;4.80;;;;;;;4.96;100.00;95879.47;10536097;28;20246;-79
2021/12/29 18:22:21;;;;;;;5.37;2.97;;;;;;;4.98;100.00;95883.56;10536197;28;20183;-79
2021/12/29 18:27:24;;;;;;;3.80;2.97;;;;;;;5.00;100.00;95888.63;10518470;28;20186;-79
2021/12/29 18:32:26;;;;;;;4.53;3.63;;;;;;;4.93;100.00;95874.56;10517205;28;20236;-79
2021/12/29 18:37:30;;;;;;;3.17;2.87;;;;;;;4.89;100.00;95879.25;10509995;28;20243;-79
2021/12/29 18:42:30;;;;;;;3.47;3.17;;;;;;;4.91;100.00;95889.47;10494186;28;20558;-78
2021/12/29 18:47:31;;;;;;;4.33;3.00;;;;;;;4.95;100.00;95889.06;10475551;28;20187;-79
2021/12/29 18:52:31;;;;;;;5.87;3.20;;;;;;;4.87;100.00;95888.94;10475834;28;20199;-79
2021/12/29 18:57:32;;;;;;;3.70;3.20;;;;;;;4.93;100.00;95890.97;10493158;28;20215;-79
2021/12/29 19:02:32;;;;;;;3.30;3.00;;;;;;;4.95;100.00;95883.88;10493241;28;20191;-77
2021/12/29 19:07:33;;;;;;;4.17;3.13;;;;;;;4.97;100.00;95871.56;10492955;28;20612;-77
2021/12/29 19:12:35;;;;;;;4.20;3.67;;;;;;;4.94;100.00;95873.63;10492046;28;20651;-78
2021/12/29 19:17:39;;;;;;;6.03;3.17;;;;;;;4.83;100.00;95880.63;10474367;28;20227;-78
2021/12/29 19:22:39;;;;;;;3.40;3.03;;;;;;;4.80;100.00;95882.69;10491788;28;20615;-79
2021/12/29 19:27:40;;;;;;;4.57;3.50;;;;;;;4.79;100.00;95891.41;10474354;28;20187;-77
2021/12/29 19:32:41;;;;;;;4.17;3.43;;;;;;;4.69;100.00;95891.44;10490495;28;20191;-77
2021/12/29 19:37:41;;;;;;;76.13;25.10;;;;;;;4.68;100.00;95886.41;10500619;28;20229;-77
2021/12/29 19:42:42;;;;;;;70.50;25.33;;;;;;;4.64;100.00;95898.84;10533606;28;20197;-77
2021/12/29 19:47:44;;;;;;;72.47;24.90;;;;;;;4.58;100.00;95897.63;10533097;28;20187;-77
2021/12/29 19:52:47;;;;;;;15.00;9.50;;;;;;;4.66;100.00;95898.72;10522263;28;20592;-76
2021/12/29 19:57:47;;;;;;;10.93;7.00;;;;;;;4.59;100.00;95901.84;10540185;28;20222;-77
2021/12/29 20:02:48;;;;;;;13.93;7.60;;;;;;;4.58;100.00;95896.78;10540415;28;20186;-76
2021/12/29 20:07:51;;;;;;;7.83;5.30;;;;;;;4.69;100.00;95898.44;10540505;28;20185;-76
2021/12/29 20:12:52;;;;;;;11.13;6.23;;;;;;;4.67;100.00;95903.75;10537635;28;20186;-76
2021/12/29 20:17:52;;;;;;;6.37;5.17;;;;;;;4.55;100.00;95897.06;10521037;28;20226;-76
2021/12/29 20:22:53;;;;;;;10.17;6.70;;;;;;;4.56;100.00;95876.16;10538688;28;20202;-79
2021/12/29 20:27:53;;;;;;;6.93;4.70;;;;;;;4.59;100.00;95883.66;10525496;28;20191;-77
2021/12/29 20:32:54;;;;;;;4.87;4.00;;;;;;;4.60;100.00;95871.53;10500920;28;20622;-77
2021/12/29 20:37:55;;;;;;;4.43;3.53;;;;;;;4.60;100.00;95881.91;10519364;28;20323;-77
2021/12/29 20:42:55;;;;;;;5.63;3.40;;;;;;;4.62;100.00;95882.59;10519608;28;20193;-77
2021/12/29 20:47:56;;;;;;;5.70;3.50;;;;;;;4.54;100.00;95870.31;10535485;28;20191;-77
2021/12/29 20:52:56;;;;;;;4.47;3.10;;;;;;;4.42;100.00;95874.03;10520915;28;20190;-77
2021/12/29 20:57:57;;;;;;;2.90;2.60;;;;;;;4.40;100.00;95881.94;10537335;28;20360;-77
2021/12/29 21:02:57;;;;;;;4.33;3.10;;;;;;;4.31;100.00;95877.59;10538013;28;20646;-77
2021/12/29 21:07:57;;;;;;;4.70;3.20;;;;;;;4.15;100.00;95888.53;10537937;28;20181;-77
2021/12/29 21:12:58;;;;;;;4.40;3.03;;;;;;;3.98;100.00;95891.78;10537474;28;20182;-76
2021/12/29 21:18:00;;;;;;;3.77;2.80;;;;;;;4.02;100.00;95893.97;10537357;28;20226;-77
2021/12/29 21:23:02;;;;;;;6.27;3.33;;;;;;;3.91;100.00;95894.09;10537344;28;20193;-77
2021/12/29 21:28:03;;;;;;;4.47;3.40;;;;;;;3.85;100.00;95894.66;10519092;28;20186;-76
2021/12/29 21:33:04;;;;;;;5.50;3.70;;;;;;;3.72;100.00;95894.88;10536771;28;20194;-76
2021/12/29 21:38:06;;;;;;;4.87;3.27;;;;;;;3.73;100.00;95899.13;10477727;28;20301;-76
2021/12/29 21:43:08;;;;;;;4.17;2.67;;;;;;;3.78;100.00;95922.03;10495904;28;20195;-75
2021/12/29 21:48:09;;;;;;;3.87;2.97;;;;;;;3.75;100.00;95910.16;10495445;28;20298;-76
2021/12/29 21:53:10;;;;;;;5.83;3.40;;;;;;;3.66;100.00;95908.38;10478092;28;20688;-76
2021/12/29 21:58:11;;;;;;;5.20;2.70;;;;;;;3.64;100.00;95899.94;10494702;28;20736;-77
2021/12/29 22:03:11;;;;;;;3.13;2.60;;;;;;;3.59;100.00;95912.47;10495361;28;20187;-76
2021/12/29 22:08:13;;;;;;;5.60;2.93;;;;;;;3.56;100.00;95923.91;10477162;28;20187;-77
2021/12/29 22:13:15;;;;;;;3.70;2.60;;;;;;;3.59;100.00;95930.59;10493203;28;20187;-77
2021/12/29 22:18:16;;;;;;;3.87;2.47;;;;;;;3.75;100.00;95928.28;10494908;28;20226;-77
2021/12/29 22:23:17;;;;;;;4.17;2.43;;;;;;;3.75;100.00;95938.66;10494003;28;20198;-77
2021/12/29 22:28:19;;;;;;;2.47;2.27;;;;;;;3.81;100.00;95926.94;10494556;28;20274;-76
2021/12/29 22:33:20;;;;;;;3.33;2.20;;;;;;;3.87;100.00;95918.66;10476738;28;20723;-77
2021/12/29 22:38:26;;;;;;;2.43;2.13;;;;;;;3.91;100.00;95918.25;10493357;28;20330;-76
2021/12/29 22:43:27;;;;;;;3.10;1.93;;;;;;;4.01;100.00;95912.25;10494343;28;20195;-76
2021/12/29 22:48:27;;;;;;;2.83;2.27;;;;;;;3.94;100.00;95906.78;10493626;28;20742;-76
2021/12/29 22:53:29;;;;;;;4.03;2.00;;;;;;;3.97;100.00;95898.75;10475819;28;20186;-75
2021/12/29 22:58:30;;;;;;;4.30;2.77;;;;;;;3.89;100.00;95902.03;10493674;28;20601;-76
2021/12/29 23:03:32;;;;;;;3.00;2.17;;;;;;;3.97;100.00;95916.88;10493560;28;20190;-76
2021/12/29 23:08:34;;;;;;;2.57;2.03;;;;;;;4.03;100.00;95925.91;10475495;28;20266;-76
2021/12/29 23:13:39;;;;;;;2.13;1.93;;;;;;;4.12;100.00;95930.28;10475102;28;20237;-76
2021/12/29 23:18:39;;;;;;;1.87;1.60;;;;;;;4.43;100.00;95937.91;10493516;28;20230;-77
2021/12/29 23:23:49;;;;;;;3.10;2.03;;;;;;;4.45;100.00;95929.00;10475711;28;20530;-77
2021/12/29 23:28:49;;;;;;;1.60;1.50;;;;;;;4.72;100.00;95926.69;10501244;28;20252;-76
2021/12/29 23:33:50;;;;;;;1.37;1.27;;;;;;;4.84;100.00;95925.56;10501092;28;20532;-76